createdAt,value
2017-03-07T04:48:03.070Z,4.68
2017-03-07T04:48:43.616Z,4.76
2017-03-07T04:49:23.890Z,4.83
2017-03-07T04:50:04.331Z,4.84
2017-03-07T04:50:44.851Z,4.86
2017-03-07T04:51:25.318Z,4.87
2017-03-07T04:52:05.782Z,4.86
2017-03-07T04:52:46.275Z,4.86
2017-03-07T04:53:26.748Z,4.86
2017-03-07T04:54:07.148Z,4.9
2017-03-07T04:54:47.559Z,4.83
2017-03-07T04:55:27.973Z,4.9
2017-03-07T04:56:08.446Z,4.89
2017-03-07T04:56:48.913Z,4.9
2017-03-07T04:57:29.353Z,4.79
2017-03-07T04:58:09.905Z,4.83
2017-03-07T04:58:50.295Z,4.82
2017-03-07T04:59:30.736Z,4.76
2017-03-07T05:00:11.145Z,4.79
2017-03-07T05:00:51.584Z,4.82
2017-03-07T05:01:31.989Z,4.83
2017-03-07T05:02:12.537Z,4.79
2017-03-07T05:02:52.936Z,4.82
2017-03-07T05:03:33.386Z,4.78
2017-03-07T05:04:13.773Z,4.74
2017-03-07T05:04:54.276Z,4.75
2017-03-07T05:05:34.721Z,4.76
2017-03-07T05:06:15.240Z,4.84
2017-03-07T05:06:55.659Z,4.84
2017-03-07T05:07:36.115Z,4.84
2017-03-07T05:08:16.547Z,4.79
2017-03-07T05:08:56.992Z,4.82
2017-03-07T05:09:37.481Z,4.76
2017-03-07T05:10:17.956Z,4.71
2017-03-07T05:10:58.420Z,4.71
2017-03-07T05:11:38.827Z,4.75
2017-03-07T05:12:19.257Z,4.78
2017-03-07T05:12:59.659Z,4.78
2017-03-07T05:13:40.126Z,4.76
2017-03-07T05:14:20.575Z,4.78
2017-03-07T05:15:00.998Z,4.84
2017-03-07T05:15:41.386Z,4.79
2017-03-07T05:16:21.809Z,4.71
2017-03-07T05:17:02.222Z,4.76
2017-03-07T05:17:42.692Z,4.67
2017-03-07T05:18:23.098Z,4.79
2017-03-07T05:19:03.486Z,4.75
2017-03-07T05:19:43.912Z,4.67
2017-03-07T05:20:24.403Z,4.82
2017-03-07T05:21:04.860Z,4.71
2017-03-07T05:21:45.277Z,4.78
2017-03-07T05:22:25.737Z,4.78
2017-03-07T05:23:06.200Z,4.74
2017-03-07T05:23:46.656Z,4.7
2017-03-07T05:24:27.111Z,4.75
2017-03-07T05:25:07.494Z,4.75
2017-03-07T05:25:47.898Z,4.76
2017-03-07T05:26:28.386Z,4.76
2017-03-07T05:27:08.897Z,4.76
2017-03-07T05:27:49.372Z,4.68
2017-03-07T05:28:29.818Z,4.86
2017-03-07T05:29:10.255Z,4.71
2017-03-07T05:29:50.691Z,4.74
2017-03-07T05:30:31.199Z,4.68
2017-03-07T05:31:11.593Z,4.76
2017-03-07T05:31:52.050Z,4.71
2017-03-07T05:32:32.448Z,4.67
2017-03-07T05:33:13.018Z,4.7
2017-03-07T05:33:53.355Z,4.71
2017-03-07T05:34:33.739Z,4.67
2017-03-07T05:35:14.217Z,4.75
2017-03-07T05:35:54.662Z,4.67
2017-03-07T05:36:35.072Z,4.67
2017-03-07T05:37:15.618Z,4.68
2017-03-07T05:37:56.133Z,4.67
2017-03-07T05:38:36.573Z,4.64
2017-03-07T05:39:17.019Z,4.66
2017-03-07T05:39:57.499Z,4.66
2017-03-07T05:40:37.944Z,4.63
2017-03-07T05:41:18.455Z,4.66
2017-03-07T05:41:58.925Z,4.68
2017-03-07T05:42:39.359Z,4.64
2017-03-07T05:43:19.770Z,4.66
2017-03-07T05:44:00.250Z,4.63
2017-03-07T05:44:40.712Z,4.67
2017-03-07T05:45:21.130Z,4.61
2017-03-07T05:46:01.552Z,4.61
2017-03-07T05:46:41.925Z,4.6
2017-03-07T05:47:22.411Z,4.56
2017-03-07T05:48:02.810Z,4.57
2017-03-07T05:48:43.319Z,4.61
2017-03-07T05:49:23.700Z,4.57
2017-03-07T05:50:04.160Z,4.56
2017-03-07T05:50:44.590Z,4.53
2017-03-07T05:51:24.976Z,4.57
2017-03-07T05:52:05.480Z,4.49
2017-03-07T05:52:45.898Z,4.5
2017-03-07T05:53:26.299Z,4.53
2017-03-07T05:54:06.681Z,4.56
2017-03-07T05:54:47.201Z,4.46
2017-03-07T05:55:27.570Z,4.5
2017-03-07T05:56:08.064Z,4.5
2017-03-07T05:56:48.485Z,4.48
2017-03-07T05:57:28.898Z,4.5
2017-03-07T05:58:09.383Z,4.53
2017-03-07T05:58:49.809Z,4.52
2017-03-07T05:59:30.284Z,4.57
2017-03-07T06:00:10.704Z,4.53
2017-03-07T06:00:51.164Z,4.48
2017-03-07T06:01:31.648Z,4.6
2017-03-07T06:02:12.091Z,4.52
2017-03-07T06:02:52.527Z,4.56
2017-03-07T06:03:33.516Z,4.58
2017-03-07T06:04:13.922Z,4.52
2017-03-07T06:04:54.381Z,4.6
2017-03-07T06:05:34.847Z,4.58
2017-03-07T06:06:15.252Z,4.57
2017-03-07T06:06:55.731Z,4.57
2017-03-07T06:07:36.195Z,4.58
2017-03-07T06:08:16.741Z,4.61
2017-03-07T06:08:57.156Z,4.6
2017-03-07T17:26:01.009Z,5.38
2017-03-07T17:26:41.332Z,5.47
2017-03-07T17:27:21.622Z,5.43
2017-03-07T17:28:02.088Z,5.37
2017-03-07T17:28:42.551Z,5.37
2017-03-07T17:29:23.324Z,5.43
2017-03-07T17:30:04.038Z,5.44
2017-03-07T17:30:44.765Z,5.54
2017-03-07T17:31:25.194Z,5.46
2017-03-07T17:32:05.784Z,5.55
2017-03-07T17:32:47.081Z,5.54
2017-03-07T17:33:27.450Z,5.55
2017-03-07T17:34:08.101Z,5.52
2017-03-07T17:34:48.869Z,5.61
2017-03-07T17:35:29.233Z,5.54
2017-03-07T17:36:09.905Z,5.56
2017-03-07T17:36:50.325Z,5.64
2017-03-07T17:37:30.802Z,5.62
2017-03-07T17:38:11.237Z,5.55
2017-03-07T17:38:51.657Z,5.59
2017-03-07T17:39:32.247Z,5.55
2017-03-07T17:40:13.089Z,5.54
2017-03-07T17:40:53.549Z,5.67
2017-03-07T17:41:34.010Z,5.55
2017-03-07T17:42:14.384Z,5.62
2017-03-07T17:42:55.559Z,5.59
2017-03-07T17:43:38.167Z,5.61
2017-03-07T17:44:19.648Z,5.69
2017-03-07T17:45:00.020Z,5.59
2017-03-07T17:45:40.540Z,5.62
2017-03-07T17:46:22.754Z,5.65
2017-03-07T17:47:05.362Z,5.72
2017-03-07T17:47:45.719Z,5.72
2017-03-07T17:48:26.922Z,5.67
2017-03-07T17:49:07.389Z,5.69
2017-03-07T17:49:48.213Z,5.76
2017-03-07T17:50:28.704Z,5.72
2017-03-07T17:51:09.091Z,5.73
2017-03-07T17:51:49.547Z,5.73
2017-03-07T17:52:30.011Z,5.72
2017-03-07T17:53:10.388Z,5.8
2017-03-07T17:53:50.828Z,5.65
2017-03-07T17:54:31.254Z,5.76
2017-03-07T17:55:11.812Z,5.77
2017-03-07T17:55:52.328Z,5.65
2017-03-07T17:56:33.059Z,5.77
2017-03-07T17:57:13.450Z,5.8
2017-03-07T17:57:53.939Z,5.79
2017-03-07T17:58:34.446Z,5.77
2017-03-07T17:59:15.158Z,5.77
2017-03-07T17:59:55.651Z,5.76
2017-03-07T18:00:36.018Z,5.73
2017-03-07T18:01:16.501Z,5.76
2017-03-07T18:01:56.899Z,5.77
2017-03-07T18:02:37.693Z,5.8
2017-03-07T18:03:18.393Z,5.77
2017-03-07T18:03:59.071Z,5.79
2017-03-07T18:04:39.664Z,5.83
2017-03-07T18:05:20.320Z,5.81
2017-03-07T18:06:00.740Z,5.76
2017-03-07T18:06:41.167Z,5.81
2017-03-07T18:07:21.580Z,5.8
2017-03-07T18:08:01.992Z,5.8
2017-03-07T18:08:42.359Z,5.83
2017-03-07T18:09:22.834Z,5.81
2017-03-07T18:10:03.237Z,5.8
2017-03-07T18:10:43.703Z,5.83
2017-03-07T18:11:24.068Z,5.73
2017-03-07T18:12:04.584Z,5.79
2017-03-07T18:12:45.014Z,5.83
2017-03-07T18:13:25.417Z,5.81
2017-03-07T18:14:05.971Z,5.83
2017-03-07T18:14:46.323Z,5.81
2017-03-07T18:15:26.773Z,5.83
2017-03-07T18:16:07.173Z,5.88
2017-03-07T18:16:47.591Z,5.8
2017-03-07T18:17:27.956Z,5.79
2017-03-07T18:18:08.381Z,5.84
2017-03-07T18:18:48.846Z,5.9
2017-03-07T18:19:29.242Z,5.88
2017-03-07T18:20:09.682Z,5.88
2017-03-07T18:20:50.173Z,5.81
2017-03-07T18:21:30.650Z,5.88
2017-03-07T18:22:11.117Z,5.88
2017-03-07T18:22:51.516Z,5.92
2017-03-07T18:23:31.961Z,5.94
2017-03-07T18:24:12.454Z,5.79
2017-03-07T18:24:52.873Z,5.91
2017-03-07T18:25:33.352Z,5.9
2017-03-07T18:26:13.755Z,5.88
2017-03-07T18:26:54.267Z,5.91
2017-03-07T18:27:34.683Z,5.87
2017-03-07T18:28:15.169Z,5.83
2017-03-07T18:28:55.542Z,5.88
2017-03-07T18:29:36.091Z,5.87
2017-03-07T18:30:16.526Z,5.88
2017-03-07T18:30:56.955Z,5.9
2017-03-07T18:31:37.401Z,5.91
2017-03-07T19:37:54.530Z,6.26
2017-03-07T19:38:34.896Z,6.12
2017-03-07T19:39:15.294Z,6.19
2017-03-07T19:39:55.787Z,6.15
2017-03-07T19:40:36.187Z,6.15
2017-03-07T19:41:16.733Z,6.16
2017-03-07T19:41:57.725Z,6.19
2017-03-07T19:42:38.117Z,6.16
2017-03-07T19:43:18.642Z,6.15
2017-03-07T19:43:59.050Z,6.17
2017-03-07T19:44:39.960Z,6.22
2017-03-07T19:45:21.494Z,6.12
2017-03-07T19:46:02.070Z,6.13
2017-03-07T19:46:43.426Z,6.07
2017-03-07T19:47:24.291Z,6.09
2017-03-07T19:48:04.734Z,6.05
2017-03-07T19:48:45.168Z,6.02
2017-03-07T19:49:25.854Z,6.1
2017-03-07T19:50:06.343Z,5.98
2017-03-07T19:50:46.739Z,5.98
2017-03-07T19:51:27.109Z,5.97
2017-03-07T19:52:07.624Z,5.98
2017-03-07T19:52:48.172Z,5.99
2017-03-07T19:53:28.731Z,5.95
2017-03-07T19:54:09.144Z,6.06
2017-03-07T19:54:49.643Z,6.01
2017-03-07T19:55:30.081Z,5.99
2017-03-07T19:56:10.461Z,6.01
2017-03-07T19:56:50.931Z,6.07
2017-03-07T19:57:31.386Z,6.05
2017-03-07T19:58:11.890Z,6.06
2017-03-07T19:58:52.574Z,6.06
2017-03-07T19:59:32.979Z,6.06
2017-03-07T20:00:13.439Z,6.12
2017-03-07T20:00:53.875Z,6.15
2017-03-07T20:01:34.345Z,6.17
2017-03-07T20:02:15.651Z,6.09
2017-03-07T20:02:56.090Z,6.1
2017-03-07T20:03:36.467Z,6.12
2017-03-07T20:04:16.928Z,6.13
2017-03-07T20:04:57.355Z,6.13
2017-03-07T20:05:37.870Z,6.13
2017-03-07T20:06:18.360Z,6.07
2017-03-07T20:06:58.859Z,6.17
2017-03-07T20:07:39.354Z,6.16
2017-03-07T20:08:19.737Z,6.1
2017-03-07T20:09:00.304Z,6.09
2017-03-07T20:09:40.785Z,6.07
2017-03-07T20:10:21.397Z,6.17
2017-03-07T20:11:02.067Z,6.17
2017-03-07T20:11:42.643Z,6.1
2017-03-07T20:13:30.476Z,6.09
2017-03-07T20:17:22.612Z,6.19
2017-03-07T20:20:30.287Z,6.13
2017-03-07T20:21:15.271Z,6.16
2017-03-07T20:21:56.471Z,6.17
2017-03-07T20:22:36.879Z,6.13
2017-03-07T20:23:19.249Z,6.12
2017-03-07T20:24:58.195Z,6.2
2017-03-07T20:25:38.772Z,6.09
2017-03-07T20:26:19.957Z,6.07
2017-03-07T20:27:00.950Z,6.02
2017-03-07T20:27:43.394Z,5.94
2017-03-07T20:28:25.676Z,5.99
2017-03-07T20:29:06.360Z,5.99
2017-03-07T20:29:49.051Z,6.01
2017-03-07T20:30:30.723Z,5.92
2017-03-07T20:31:14.992Z,5.94
2017-03-07T20:31:56.104Z,5.9
2017-03-07T20:32:37.138Z,5.91
2017-03-07T20:33:17.649Z,5.91
2017-03-07T20:33:58.086Z,5.87
2017-03-07T20:34:38.519Z,5.8
2017-03-07T20:35:19.647Z,5.84
2017-03-07T20:36:01.530Z,5.77
2017-03-07T20:36:43.466Z,5.7
2017-03-07T20:37:25.579Z,5.79
2017-03-07T20:38:06.865Z,5.77
2017-03-07T20:38:48.201Z,5.72
2017-03-07T20:39:29.193Z,5.69
2017-03-07T20:40:10.640Z,5.64
2017-03-07T20:40:51.700Z,5.69
2017-03-07T20:41:32.287Z,5.62
2017-03-07T20:43:52.755Z,5.62
2017-03-07T20:44:33.953Z,5.56
2017-03-07T20:45:16.072Z,5.67
2017-03-07T20:45:57.057Z,5.64
2017-03-07T20:46:37.503Z,5.59
2017-03-07T20:47:17.923Z,5.62
2017-03-07T20:47:58.362Z,5.65
2017-03-07T20:54:50.660Z,5.62
2017-03-07T20:55:32.461Z,5.55
2017-03-07T20:56:13.808Z,5.59
2017-03-07T20:56:55.973Z,5.55
2017-03-07T20:57:36.388Z,5.55
2017-03-07T20:58:16.814Z,5.51
2017-03-07T20:58:57.978Z,5.56
2017-03-07T20:59:38.541Z,5.58
2017-03-07T21:00:21.540Z,5.44
2017-03-07T21:01:03.983Z,5.55
2017-03-07T21:01:46.985Z,5.43
2017-03-07T21:02:28.978Z,5.44
2017-03-07T21:03:09.532Z,5.44
2017-03-07T21:03:51.464Z,5.36
2017-03-07T21:04:32.667Z,5.49
2017-03-07T21:05:18.446Z,5.41
2017-03-07T21:05:58.899Z,5.4
2017-03-07T21:06:40.148Z,5.4
2017-03-07T21:07:21.202Z,5.4
2017-03-07T21:08:02.654Z,5.37
2017-03-07T21:08:46.464Z,5.4
2017-03-07T21:09:26.942Z,5.38
2017-03-07T21:10:08.332Z,5.4
2017-03-07T21:10:48.748Z,5.38
2017-03-07T21:11:33.446Z,5.4
2017-03-07T21:12:16.455Z,5.4
2017-03-07T21:12:57.832Z,5.43
2017-03-07T21:13:41.917Z,5.38
2017-03-07T21:14:22.724Z,5.38
2017-03-07T21:15:03.271Z,5.43
2017-03-07T21:15:43.949Z,5.37
2017-03-07T21:16:25.492Z,5.4
2017-03-07T21:17:06.548Z,5.46
2017-03-07T21:17:47.136Z,5.4
2017-03-07T21:18:28.991Z,5.44
2017-03-07T21:19:10.225Z,5.41
2017-03-07T21:19:54.031Z,5.46
2017-03-07T21:20:38.829Z,5.4
2017-03-07T21:21:24.316Z,5.44
2017-03-07T21:23:35.076Z,5.41
2017-03-07T21:40:57.009Z,5.33
2017-03-07T21:41:39.119Z,5.28
2017-03-07T21:49:49.644Z,5.13
2017-03-07T21:50:30.890Z,5.2
2017-03-07T21:51:13.113Z,5.13
2017-03-07T22:10:57.586Z,5.28
2017-03-07T22:11:40.823Z,5.25
2017-03-07T22:12:21.720Z,5.34
2017-03-07T22:13:02.126Z,5.38
2017-03-07T22:15:20.149Z,5.36
2017-03-07T22:16:01.466Z,5.34
2017-03-07T22:16:45.704Z,5.37
2017-03-07T22:17:26.174Z,5.44
